Time;durP1;ratioP1;P1;durP2;ratioP2;P2;SDS_P1;SDS_P2;PMS_P1;PMS_P2;Temp;Humidity;BMP_temperature;BMP_pressure;BME280_temperature;BME280_humidity;BME280_pressure;Samples;Min_cycle;Max_cycle;Signal;HPM_P1;HPM_P2
2021/06/05 00:00:32;;;;;;;14.88;11.43;;;;;;;;;;5052421;28;20028;-74
2021/06/05 00:02:58;;;;;;;12.90;10.63;;;;;;;;;;5070727;28;20361;-75
2021/06/05 00:05:24;;;;;;;14.23;10.80;;;;;;;;;;5058285;28;20028;-74
2021/06/05 00:07:50;;;;;;;13.15;10.27;;;;;;;;;;5066122;28;20036;-74
2021/06/05 00:10:18;;;;;;;12.45;10.48;;;;;;;;;;5051960;28;20039;-75
2021/06/05 00:12:43;;;;;;;13.13;10.57;;;;;;;;;;5051873;28;20025;-75
2021/06/05 00:15:11;;;;;;;12.38;10.45;;;;;;;;;;5056251;28;20069;-75
2021/06/05 00:17:36;;;;;;;12.13;10.50;;;;;;;;;;5048862;28;20555;-74
2021/06/05 00:20:04;;;;;;;12.80;9.88;;;;;;;;;;5051838;28;20108;-75
2021/06/05 00:22:29;;;;;;;11.93;10.25;;;;;;;;;;5055479;28;20048;-74
2021/06/05 00:24:55;;;;;;;13.52;11.02;;;;;;;;;;5055817;28;20017;-75
2021/06/05 00:27:20;;;;;;;11.27;9.47;;;;;;;;;;5051958;28;20112;-74
2021/06/05 00:29:45;;;;;;;10.95;9.20;;;;;;;;;;5051611;28;20258;-75
2021/06/05 00:32:10;;;;;;;11.67;9.87;;;;;;;;;;5051982;28;20025;-75
2021/06/05 00:34:35;;;;;;;11.98;9.40;;;;;;;;;;5066029;28;20283;-73
2021/06/05 00:37:00;;;;;;;10.80;9.50;;;;;;;;;;5056579;28;20032;-75
2021/06/05 00:39:26;;;;;;;11.43;9.80;;;;;;;;;;5057597;28;20345;-74
2021/06/05 00:41:51;;;;;;;12.90;9.77;;;;;;;;;;5051500;28;20033;-74
2021/06/05 00:44:17;;;;;;;10.07;8.88;;;;;;;;;;5058220;28;20021;-75
2021/06/05 00:46:42;;;;;;;11.63;9.40;;;;;;;;;;5052180;28;20032;-75
2021/06/05 00:49:08;;;;;;;10.40;9.15;;;;;;;;;;5070515;28;20096;-74
2021/06/05 00:51:41;;;;;;;12.35;9.38;;;;;;;;;;5070160;28;20465;-74
2021/06/05 00:54:08;;;;;;;10.38;8.82;;;;;;;;;;5068608;28;20016;-75
2021/06/05 00:56:34;;;;;;;11.18;8.45;;;;;;;;;;5057638;28;20107;-75
2021/06/05 00:58:59;;;;;;;10.30;8.75;;;;;;;;;;5069957;28;20112;-74
2021/06/05 01:01:26;;;;;;;11.52;8.25;;;;;;;;;;5064650;28;20039;-74
2021/06/05 01:03:52;;;;;;;8.48;7.00;;;;;;;;;;5057203;28;20043;-74
2021/06/05 01:06:33;;;;;;;7.70;6.90;;;;;;;;;;5049567;28;20037;-74
2021/06/05 01:09:01;;;;;;;10.82;6.80;;;;;;;;;;5063684;28;20024;-74
2021/06/05 01:11:45;;;;;;;8.60;6.68;;;;;;;;;;5064343;28;20025;-74
2021/06/05 01:14:22;;;;;;;8.63;6.85;;;;;;;;;;5066989;28;20485;-74
2021/06/05 01:16:48;;;;;;;6.85;5.75;;;;;;;;;;5054202;28;20025;-75
2021/06/05 01:19:26;;;;;;;6.00;5.40;;;;;;;;;;5069273;28;20067;-74
2021/06/05 01:22:01;;;;;;;7.70;5.63;;;;;;;;;;5051411;28;20029;-74
2021/06/05 01:24:47;;;;;;;7.45;5.50;;;;;;;;;;5050271;28;20103;-75
2021/06/05 01:27:21;;;;;;;6.95;5.63;;;;;;;;;;5064505;28;20024;-74
2021/06/05 01:29:49;;;;;;;6.43;5.03;;;;;;;;;;5053731;28;20807;-75
2021/06/05 01:32:15;;;;;;;8.35;5.32;;;;;;;;;;5063381;28;20107;-74
2021/06/05 01:34:42;;;;;;;6.72;5.30;;;;;;;;;;5064836;28;20178;-74
2021/06/05 01:37:09;;;;;;;8.60;5.70;;;;;;;;;;5067110;28;20458;-75
2021/06/05 01:39:35;;;;;;;7.63;6.03;;;;;;;;;;5051715;28;20372;-75
2021/06/05 01:42:04;;;;;;;7.22;5.97;;;;;;;;;;5056094;28;20082;-74
2021/06/05 01:44:31;;;;;;;8.13;6.28;;;;;;;;;;5067478;28;20559;-74
2021/06/05 01:46:56;;;;;;;7.72;6.50;;;;;;;;;;5050161;28;20028;-74
2021/06/05 01:49:22;;;;;;;7.95;6.68;;;;;;;;;;5049659;28;20104;-73
2021/06/05 01:51:50;;;;;;;8.98;6.65;;;;;;;;;;5049998;28;20433;-75
2021/06/05 01:54:20;;;;;;;7.45;6.43;;;;;;;;;;5056570;28;20021;-74
2021/06/05 01:56:45;;;;;;;;;;;;;;;;;;5069482;28;20335;-74
2021/06/05 01:59:11;;;;;;;7.65;6.25;;;;;;;;;;5061752;28;19970;-74
2021/06/05 02:01:37;;;;;;;9.27;6.75;;;;;;;;;;5055914;28;20032;-73
2021/06/05 02:04:02;;;;;;;9.32;7.28;;;;;;;;;;5055911;28;20023;-74
2021/06/05 02:06:27;;;;;;;8.20;6.72;;;;;;;;;;5042193;28;20047;-74
2021/06/05 02:08:54;;;;;;;8.80;7.35;;;;;;;;;;5061959;28;20016;-73
2021/06/05 02:11:20;;;;;;;9.65;7.65;;;;;;;;;;5056256;28;20152;-74
2021/06/05 02:13:48;;;;;;;10.75;8.30;;;;;;;;;;5048917;28;20029;-73
2021/06/05 02:16:16;;;;;;;9.10;7.82;;;;;;;;;;5049330;28;20325;-74
2021/06/05 02:18:44;;;;;;;11.57;8.15;;;;;;;;;;5070665;28;20415;-74
2021/06/05 02:21:11;;;;;;;12.70;8.82;;;;;;;;;;5068246;28;20321;-74
2021/06/05 02:23:50;;;;;;;12.32;9.50;;;;;;;;;;5063518;28;20021;-75
2021/06/05 02:26:16;;;;;;;13.00;10.40;;;;;;;;;;5042585;28;20024;-74
2021/06/05 02:28:42;;;;;;;12.93;9.98;;;;;;;;;;5042694;28;20051;-73
2021/06/05 02:31:08;;;;;;;16.55;10.40;;;;;;;;;;5067810;28;20024;-74
2021/06/05 02:33:34;;;;;;;14.13;10.48;;;;;;;;;;5062163;28;20106;-73
2021/06/05 02:36:00;;;;;;;13.07;10.82;;;;;;;;;;5067801;28;20020;-75
2021/06/05 02:38:25;;;;;;;15.50;11.43;;;;;;;;;;5068225;28;20028;-74
2021/06/05 02:40:50;;;;;;;14.15;10.75;;;;;;;;;;5044453;28;20037;-74
2021/06/05 02:43:18;;;;;;;15.82;11.88;;;;;;;;;;5059996;28;20375;-75
2021/06/05 02:45:47;;;;;;;16.83;12.48;;;;;;;;;;5056923;28;20032;-74
2021/06/05 02:48:12;;;;;;;16.40;11.98;;;;;;;;;;5055087;28;20021;-75
2021/06/05 02:50:40;;;;;;;15.75;12.48;;;;;;;;;;5052896;28;20035;-73
2021/06/05 02:53:06;;;;;;;16.85;12.48;;;;;;;;;;5056817;28;20032;-73
2021/06/05 02:55:31;;;;;;;16.00;12.38;;;;;;;;;;5061229;28;20023;-74
2021/06/05 02:57:56;;;;;;;16.50;12.65;;;;;;;;;;5062140;28;20033;-74
2021/06/05 03:00:24;;;;;;;17.15;12.02;;;;;;;;;;5061309;28;20020;-73
2021/06/05 03:02:50;;;;;;;17.60;12.77;;;;;;;;;;5065061;28;20055;-74
2021/06/05 03:05:15;;;;;;;17.70;13.15;;;;;;;;;;5051991;28;20016;-75
2021/06/05 03:07:40;;;;;;;17.95;12.73;;;;;;;;;;5051201;28;20029;-76
2021/06/05 03:10:06;;;;;;;17.60;12.98;;;;;;;;;;5065771;28;20012;-75
2021/06/05 03:12:31;;;;;;;14.55;11.20;;;;;;;;;;5048621;28;20013;-76
2021/06/05 03:14:56;;;;;;;17.88;12.27;;;;;;;;;;5062865;28;20029;-76
2021/06/05 03:17:21;;;;;;;16.35;11.98;;;;;;;;;;5060283;28;20025;-74
2021/06/05 03:19:47;;;;;;;16.42;12.18;;;;;;;;;;5055355;28;20031;-75
2021/06/05 03:22:12;;;;;;;15.77;12.63;;;;;;;;;;5061332;28;20124;-76
2021/06/05 03:24:37;;;;;;;17.05;11.40;;;;;;;;;;5054549;28;20055;-76
2021/06/05 03:27:03;;;;;;;15.48;11.73;;;;;;;;;;5067711;28;20444;-75
2021/06/05 03:29:29;;;;;;;15.57;11.15;;;;;;;;;;5069272;28;20375;-76
2021/06/05 03:31:54;;;;;;;14.65;11.45;;;;;;;;;;5059548;28;20499;-76
2021/06/05 03:34:19;;;;;;;16.27;11.23;;;;;;;;;;5052052;28;20045;-76
2021/06/05 03:36:45;;;;;;;15.10;11.02;;;;;;;;;;5057082;28;20039;-77
2021/06/05 03:39:10;;;;;;;14.73;11.88;;;;;;;;;;5071685;28;20021;-73
2021/06/05 03:41:35;;;;;;;15.32;11.95;;;;;;;;;;5071456;28;20055;-76
2021/06/05 03:44:01;;;;;;;16.13;11.15;;;;;;;;;;5058879;28;20024;-75
2021/06/05 03:46:26;;;;;;;14.23;10.70;;;;;;;;;;5054945;28;20755;-73
2021/06/05 03:48:52;;;;;;;17.48;11.38;;;;;;;;;;5068301;28;20036;-74
2021/06/05 03:51:18;;;;;;;13.52;10.15;;;;;;;;;;5058148;28;20108;-73
2021/06/05 03:53:43;;;;;;;16.52;10.93;;;;;;;;;;5058079;28;20163;-74
2021/06/05 03:56:08;;;;;;;13.90;10.25;;;;;;;;;;5069240;28;20237;-74
2021/06/05 03:58:39;;;;;;;12.95;9.82;;;;;;;;;;5053547;28;20118;-74
2021/06/05 04:01:06;;;;;;;13.38;10.60;;;;;;;;;;5055917;28;20040;-74
2021/06/05 04:03:31;;;;;;;14.75;11.13;;;;;;;;;;5053344;28;20036;-74
2021/06/05 04:05:56;;;;;;;13.85;10.10;;;;;;;;;;5063638;28;20021;-74
2021/06/05 04:08:21;;;;;;;13.25;9.82;;;;;;;;;;5051807;28;20028;-75
2021/06/05 04:10:46;;;;;;;12.65;8.93;;;;;;;;;;5040258;28;20115;-76
2021/06/05 04:13:12;;;;;;;14.55;9.50;;;;;;;;;;5064569;28;20486;-75
2021/06/05 04:15:37;;;;;;;11.90;9.23;;;;;;;;;;5071322;28;20032;-74
2021/06/05 04:18:14;;;;;;;11.20;8.82;;;;;;;;;;5058114;28;20032;-75
2021/06/05 04:20:40;;;;;;;12.95;8.98;;;;;;;;;;5064907;28;20028;-74
2021/06/05 04:23:05;;;;;;;12.55;8.55;;;;;;;;;;5070465;28;20035;-74
2021/06/05 04:25:30;;;;;;;9.57;7.60;;;;;;;;;;5051722;28;20017;-75
2021/06/05 04:27:56;;;;;;;10.93;8.10;;;;;;;;;;5070463;28;20038;-75
2021/06/05 04:30:23;;;;;;;10.23;7.50;;;;;;;;;;5064099;28;20028;-75
2021/06/05 04:32:48;;;;;;;10.60;7.10;;;;;;;;;;5051429;28;20124;-74
2021/06/05 04:35:14;;;;;;;7.45;6.32;;;;;;;;;;5064907;28;20116;-75
2021/06/05 04:37:39;;;;;;;8.13;6.43;;;;;;;;;;5069137;28;20103;-75
2021/06/05 04:40:05;;;;;;;9.45;6.47;;;;;;;;;;5052927;28;20039;-75
2021/06/05 04:42:30;;;;;;;7.47;6.32;;;;;;;;;;5055293;28;20044;-74
2021/06/05 04:44:55;;;;;;;8.95;5.63;;;;;;;;;;5066623;28;20021;-73
2021/06/05 04:47:20;;;;;;;7.55;6.00;;;;;;;;;;5057549;28;20028;-73
2021/06/05 04:49:45;;;;;;;7.25;5.47;;;;;;;;;;5054547;28;20048;-73
2021/06/05 04:52:11;;;;;;;7.67;5.50;;;;;;;;;;5070131;28;20146;-73
2021/06/05 04:54:36;;;;;;;8.60;5.10;;;;;;;;;;5054689;28;20263;-72
2021/06/05 04:57:01;;;;;;;6.78;4.45;;;;;;;;;;5058997;28;20024;-73
2021/06/05 04:59:26;;;;;;;6.25;4.35;;;;;;;;;;5063752;28;20017;-73
2021/06/05 05:01:52;;;;;;;6.15;3.95;;;;;;;;;;5069740;28;20033;-73
2021/06/05 05:04:17;;;;;;;5.70;4.10;;;;;;;;;;5056170;28;20100;-74
2021/06/05 05:06:42;;;;;;;5.38;3.95;;;;;;;;;;5051163;28;20028;-73
2021/06/05 05:09:08;;;;;;;5.28;3.70;;;;;;;;;;5057480;28;20017;-73
2021/06/05 05:11:34;;;;;;;6.28;3.90;;;;;;;;;;5050470;28;20020;-75
2021/06/05 05:13:59;;;;;;;6.50;3.60;;;;;;;;;;5050919;28;20021;-73
2021/06/05 05:16:24;;;;;;;5.43;3.63;;;;;;;;;;5050938;28;20029;-74
2021/06/05 05:18:49;;;;;;;4.22;3.35;;;;;;;;;;5062106;28;20063;-73
2021/06/05 05:21:15;;;;;;;4.80;2.90;;;;;;;;;;5058080;28;20064;-73
2021/06/05 05:23:41;;;;;;;4.47;2.95;;;;;;;;;;5055362;28;20112;-74
2021/06/05 05:26:07;;;;;;;4.65;2.70;;;;;;;;;;5070432;28;20054;-74
2021/06/05 05:28:33;;;;;;;4.18;2.50;;;;;;;;;;5069600;28;20016;-74
2021/06/05 05:31:00;;;;;;;4.20;2.33;;;;;;;;;;5070054;28;20024;-73
2021/06/05 05:33:25;;;;;;;3.33;2.65;;;;;;;;;;5065644;28;20076;-73
2021/06/05 05:35:51;;;;;;;3.78;2.58;;;;;;;;;;5054015;28;20487;-74
2021/06/05 05:38:18;;;;;;;2.75;2.03;;;;;;;;;;5066300;28;20357;-73
2021/06/05 05:40:43;;;;;;;3.17;2.30;;;;;;;;;;5050334;28;20033;-73
2021/06/05 05:43:09;;;;;;;4.35;2.55;;;;;;;;;;5066025;28;20471;-74
2021/06/05 05:45:34;;;;;;;3.45;2.28;;;;;;;;;;5047791;28;20036;-74
2021/06/05 05:48:01;;;;;;;6.13;2.08;;;;;;;;;;5056784;28;20025;-74
2021/06/05 05:50:27;;;;;;;3.08;1.98;;;;;;;;;;5049838;28;20103;-74
2021/06/05 05:52:53;;;;;;;3.67;2.10;;;;;;;;;;5063906;28;20016;-74
2021/06/05 05:55:18;;;;;;;2.87;1.90;;;;;;;;;;5064194;28;20044;-74
2021/06/05 05:57:43;;;;;;;3.05;1.65;;;;;;;;;;5063882;28;20283;-73
2021/06/05 06:00:12;;;;;;;3.30;1.95;;;;;;;;;;5056016;28;20452;-73
2021/06/05 06:02:37;;;;;;;2.38;1.60;;;;;;;;;;5049473;28;20062;-74
2021/06/05 06:05:02;;;;;;;3.25;1.83;;;;;;;;;;5062876;28;20082;-73
2021/06/05 06:07:27;;;;;;;3.45;1.80;;;;;;;;;;5068723;28;20079;-74
2021/06/05 06:09:53;;;;;;;3.43;1.40;;;;;;;;;;5069131;28;20156;-74
2021/06/05 06:12:20;;;;;;;2.40;1.63;;;;;;;;;;5056995;28;20267;-74
2021/06/05 06:14:45;;;;;;;3.10;1.80;;;;;;;;;;5054967;28;20025;-73
2021/06/05 06:17:10;;;;;;;2.03;1.40;;;;;;;;;;5063377;28;20083;-73
2021/06/05 06:19:35;;;;;;;3.27;1.50;;;;;;;;;;5056071;28;20259;-73
2021/06/05 06:22:01;;;;;;;2.40;1.50;;;;;;;;;;5049426;28;20364;-73
2021/06/05 06:24:26;;;;;;;3.65;1.55;;;;;;;;;;5059681;28;20266;-73
2021/06/05 06:26:51;;;;;;;2.33;1.50;;;;;;;;;;5058854;28;20025;-74
2021/06/05 06:29:18;;;;;;;2.88;1.40;;;;;;;;;;5049180;28;20017;-74
2021/06/05 06:31:46;;;;;;;2.22;1.33;;;;;;;;;;5065051;28;20431;-74
2021/06/05 06:34:11;;;;;;;3.45;1.33;;;;;;;;;;5058873;28;20140;-73
2021/06/05 06:36:38;;;;;;;3.50;1.30;;;;;;;;;;5045150;28;20159;-73
2021/06/05 06:39:04;;;;;;;2.40;1.33;;;;;;;;;;5057605;28;20036;-74
2021/06/05 06:41:30;;;;;;;4.50;1.50;;;;;;;;;;5061761;28;20049;-73
2021/06/05 06:43:56;;;;;;;2.15;1.20;;;;;;;;;;5053665;28;20100;-73
2021/06/05 06:46:25;;;;;;;1.33;1.10;;;;;;;;;;5063353;28;20069;-73
2021/06/05 06:48:54;;;;;;;1.73;1.30;;;;;;;;;;5061971;28;20575;-74
2021/06/05 06:51:20;;;;;;;1.70;1.23;;;;;;;;;;5066941;28;20323;-73
2021/06/05 06:53:46;;;;;;;1.10;1.00;;;;;;;;;;5048751;28;20111;-73
2021/06/05 06:56:12;;;;;;;1.80;1.00;;;;;;;;;;5049584;28;20092;-73
2021/06/05 06:58:37;;;;;;;1.83;1.10;;;;;;;;;;5056185;28;20028;-74
2021/06/05 07:01:03;;;;;;;1.95;0.95;;;;;;;;;;5061882;28;20075;-74
2021/06/05 07:03:29;;;;;;;2.80;0.88;;;;;;;;;;5055109;28;20455;-74
2021/06/05 07:05:54;;;;;;;2.38;1.00;;;;;;;;;;5044605;28;20064;-74
2021/06/05 07:08:24;;;;;;;0.90;0.80;;;;;;;;;;5061482;28;20021;-74
2021/06/05 07:10:51;;;;;;;3.13;0.90;;;;;;;;;;5042461;28;20614;-75
2021/06/05 07:13:17;;;;;;;2.97;1.10;;;;;;;;;;5062258;28;20027;-74
2021/06/05 07:15:42;;;;;;;1.00;0.80;;;;;;;;;;5049299;28;20021;-74
2021/06/05 07:18:08;;;;;;;1.83;0.80;;;;;;;;;;5049588;28;20120;-75
2021/06/05 07:20:33;;;;;;;2.30;0.70;;;;;;;;;;5054257;28;20777;-73
2021/06/05 07:22:59;;;;;;;1.43;0.90;;;;;;;;;;5068440;28;20020;-74
2021/06/05 07:25:24;;;;;;;1.65;0.90;;;;;;;;;;5049275;28;20248;-73
2021/06/05 07:27:50;;;;;;;1.65;0.93;;;;;;;;;;5053420;28;20028;-74
2021/06/05 07:30:15;;;;;;;1.08;0.80;;;;;;;;;;5061723;28;20048;-73
2021/06/05 07:32:41;;;;;;;1.38;0.70;;;;;;;;;;5064727;28;20021;-73
2021/06/05 07:35:07;;;;;;;2.38;1.17;;;;;;;;;;5049100;28;20021;-73
2021/06/05 07:37:32;;;;;;;1.65;0.90;;;;;;;;;;5048627;28;20028;-74
2021/06/05 07:39:57;;;;;;;2.80;1.07;;;;;;;;;;5057754;28;20016;-74
2021/06/05 07:42:22;;;;;;;3.90;0.90;;;;;;;;;;5059565;28;20298;-74
2021/06/05 07:44:49;;;;;;;3.03;1.23;;;;;;;;;;5078751;28;20262;-75
2021/06/05 07:47:14;;;;;;;3.67;1.08;;;;;;;;;;5048487;28;20037;-74
2021/06/05 07:49:39;;;;;;;1.90;1.20;;;;;;;;;;5048795;28;20092;-75
2021/06/05 07:52:06;;;;;;;2.40;1.27;;;;;;;;;;5055607;28;20109;-73
2021/06/05 07:54:31;;;;;;;2.67;1.20;;;;;;;;;;5061357;28;20099;-75
2021/06/05 07:56:57;;;;;;;2.45;1.10;;;;;;;;;;5054480;28;20148;-74
2021/06/05 07:59:23;;;;;;;3.13;1.03;;;;;;;;;;5061344;28;20021;-74
2021/06/05 08:01:49;;;;;;;3.10;1.27;;;;;;;;;;5067727;28;20811;-76
2021/06/05 08:04:14;;;;;;;2.08;1.17;;;;;;;;;;5048746;28;20032;-74
2021/06/05 08:06:40;;;;;;;2.50;1.15;;;;;;;;;;5066697;28;20024;-75
2021/06/05 08:09:06;;;;;;;2.10;1.33;;;;;;;;;;5054665;28;20017;-75
2021/06/05 08:11:32;;;;;;;1.65;1.02;;;;;;;;;;5063155;28;20035;-74
2021/06/05 08:13:57;;;;;;;2.78;1.60;;;;;;;;;;5048044;28;20733;-74
2021/06/05 08:16:22;;;;;;;3.38;1.33;;;;;;;;;;5064054;28;20104;-74
2021/06/05 08:18:47;;;;;;;2.63;1.40;;;;;;;;;;5051646;28;20396;-74
2021/06/05 08:21:13;;;;;;;1.90;1.30;;;;;;;;;;5062016;28;20297;-74
2021/06/05 08:23:39;;;;;;;1.58;1.00;;;;;;;;;;5054619;28;20027;-74
2021/06/05 08:26:05;;;;;;;1.00;0.80;;;;;;;;;;5052353;28;20029;-73
2021/06/05 08:28:30;;;;;;;2.03;1.02;;;;;;;;;;5056682;28;20024;-74
2021/06/05 08:30:57;;;;;;;2.83;0.93;;;;;;;;;;5066833;28;20399;-74
2021/06/05 08:33:23;;;;;;;0.98;0.70;;;;;;;;;;5055607;28;20045;-73
2021/06/05 08:35:48;;;;;;;2.75;1.00;;;;;;;;;;5053419;28;20017;-74
2021/06/05 08:38:15;;;;;;;1.52;0.90;;;;;;;;;;5069405;28;20021;-74
2021/06/05 08:40:54;;;;;;;1.40;0.95;;;;;;;;;;5052303;28;20022;-72
2021/06/05 08:43:38;;;;;;;1.70;1.00;;;;;;;;;;5068206;28;20064;-74
2021/06/05 08:46:05;;;;;;;1.85;1.00;;;;;;;;;;5062837;28;20030;-74
2021/06/05 08:48:30;;;;;;;2.38;1.10;;;;;;;;;;5066091;28;20025;-73
2021/06/05 08:51:02;;;;;;;2.58;1.30;;;;;;;;;;5061704;28;20028;-74
2021/06/05 08:53:28;;;;;;;3.13;1.30;;;;;;;;;;5066356;28;20021;-73
2021/06/05 08:55:55;;;;;;;2.85;1.10;;;;;;;;;;5051286;28;20024;-73
2021/06/05 08:58:31;;;;;;;2.40;1.20;;;;;;;;;;5050982;28;20029;-74
2021/06/05 09:01:10;;;;;;;1.70;0.95;;;;;;;;;;5069339;28;20040;-74
2021/06/05 09:03:36;;;;;;;1.70;0.85;;;;;;;;;;5069984;28;20021;-73
2021/06/05 09:06:15;;;;;;;1.60;1.08;;;;;;;;;;5069887;28;20028;-72
2021/06/05 09:08:40;;;;;;;2.03;1.27;;;;;;;;;;5068990;28;20020;-73
2021/06/05 09:11:06;;;;;;;2.78;1.48;;;;;;;;;;5050859;28;20369;-73
2021/06/05 09:13:31;;;;;;;1.60;1.02;;;;;;;;;;5064185;28;20023;-75
2021/06/05 09:16:15;;;;;;;3.25;0.90;;;;;;;;;;5050518;28;20021;-74
2021/06/05 09:18:59;;;;;;;1.00;0.70;;;;;;;;;;5054496;28;20040;-73
2021/06/05 09:21:27;;;;;;;2.95;0.82;;;;;;;;;;5054844;28;20040;-73
2021/06/05 09:23:53;;;;;;;1.48;0.80;;;;;;;;;;5069801;28;20444;-73
2021/06/05 09:26:23;;;;;;;1.95;0.70;;;;;;;;;;5065472;28;20090;-73
2021/06/05 09:29:05;;;;;;;1.58;0.77;;;;;;;;;;5049809;28;20078;-74
2021/06/05 09:31:30;;;;;;;1.60;0.70;;;;;;;;;;5056547;28;20018;-73
2021/06/05 09:33:55;;;;;;;1.10;0.67;;;;;;;;;;5068812;28;20388;-74
2021/06/05 09:36:23;;;;;;;1.13;0.80;;;;;;;;;;5069238;28;20270;-74
2021/06/05 09:38:51;;;;;;;0.93;0.50;;;;;;;;;;5062733;28;20028;-73
2021/06/05 09:41:37;;;;;;;1.33;0.60;;;;;;;;;;5069520;28;20123;-74
2021/06/05 09:44:20;;;;;;;1.30;0.73;;;;;;;;;;5061071;28;20028;-73
2021/06/05 09:46:56;;;;;;;2.63;0.70;;;;;;;;;;5060093;28;20138;-74
2021/06/05 09:49:26;;;;;;;1.17;0.60;;;;;;;;;;5052259;28;20083;-73
2021/06/05 09:51:59;;;;;;;4.30;0.77;;;;;;;;;;5054406;28;20020;-73
2021/06/05 09:54:29;;;;;;;1.38;0.50;;;;;;;;;;5050788;28;20080;-73
2021/06/05 09:57:12;;;;;;;1.13;0.68;;;;;;;;;;5056321;28;20073;-73
2021/06/05 09:59:37;;;;;;;1.15;0.70;;;;;;;;;;5057162;28;20060;-72
2021/06/05 10:02:05;;;;;;;1.37;0.77;;;;;;;;;;5069203;28;20055;-73
2021/06/05 10:04:31;;;;;;;1.10;0.60;;;;;;;;;;5069620;28;20247;-73
2021/06/05 10:06:58;;;;;;;1.10;0.68;;;;;;;;;;5056417;28;20660;-74
2021/06/05 10:09:26;;;;;;;0.73;0.70;;;;;;;;;;5062531;28;20020;-73
2021/06/05 10:11:53;;;;;;;0.82;0.60;;;;;;;;;;5063183;28;20024;-73
2021/06/05 10:14:19;;;;;;;2.53;0.60;;;;;;;;;;5068711;28;20012;-74
2021/06/05 10:16:47;;;;;;;0.93;0.70;;;;;;;;;;5068875;28;20520;-74
2021/06/05 10:19:15;;;;;;;2.03;0.80;;;;;;;;;;5062696;28;20038;-74
2021/06/05 10:21:42;;;;;;;1.55;0.93;;;;;;;;;;5068496;28;20035;-73
2021/06/05 10:24:21;;;;;;;1.48;0.90;;;;;;;;;;5059930;28;20456;-74
2021/06/05 10:26:47;;;;;;;1.27;0.70;;;;;;;;;;5055923;28;20028;-73
2021/06/05 10:29:22;;;;;;;2.28;0.80;;;;;;;;;;5049870;28;20062;-73
2021/06/05 10:31:47;;;;;;;1.88;0.88;;;;;;;;;;5057139;28;20494;-73
2021/06/05 10:34:15;;;;;;;3.05;0.80;;;;;;;;;;5061916;28;20053;-74
2021/06/05 10:36:48;;;;;;;1.38;0.77;;;;;;;;;;5068027;28;20029;-74
2021/06/05 10:39:18;;;;;;;0.98;0.60;;;;;;;;;;5053615;28;20013;-74
2021/06/05 10:41:45;;;;;;;1.10;0.88;;;;;;;;;;5064261;28;20375;-73
2021/06/05 10:44:10;;;;;;;1.75;0.80;;;;;;;;;;5068386;28;20154;-73
2021/06/05 10:46:55;;;;;;;0.73;0.57;;;;;;;;;;5060983;28;20025;-74
2021/06/05 10:49:20;;;;;;;0.98;0.50;;;;;;;;;;5047128;28;20036;-74
2021/06/05 10:51:47;;;;;;;2.20;0.90;;;;;;;;;;5064923;28;20021;-75
2021/06/05 10:54:22;;;;;;;0.95;0.70;;;;;;;;;;5055898;28;20028;-74
2021/06/05 10:56:50;;;;;;;1.10;0.90;;;;;;;;;;5053031;28;20008;-74
2021/06/05 10:59:33;;;;;;;1.73;0.75;;;;;;;;;;5050752;28;20480;-74
2021/06/05 11:01:59;;;;;;;1.63;0.77;;;;;;;;;;5048618;28;20119;-74
2021/06/05 11:04:33;;;;;;;2.75;0.80;;;;;;;;;;5061264;28;20433;-74
2021/06/05 11:07:01;;;;;;;2.63;0.82;;;;;;;;;;5049230;28;20028;-74
2021/06/05 11:09:27;;;;;;;1.90;0.80;;;;;;;;;;5048459;28;20092;-74
2021/06/05 11:11:52;;;;;;;1.20;0.70;;;;;;;;;;5067861;28;20560;-72
2021/06/05 11:14:20;;;;;;;1.50;0.77;;;;;;;;;;5049543;28;20025;-74
2021/06/05 11:16:58;;;;;;;1.33;0.88;;;;;;;;;;5048168;28;20017;-74
2021/06/05 11:19:40;;;;;;;2.88;0.90;;;;;;;;;;5055465;28;20104;-74
2021/06/05 11:22:07;;;;;;;1.38;1.05;;;;;;;;;;5059266;28;20029;-74
2021/06/05 11:24:33;;;;;;;2.17;1.20;;;;;;;;;;5057747;28;20020;-73
2021/06/05 11:26:59;;;;;;;2.13;1.48;;;;;;;;;;5068213;28;20055;-73
2021/06/05 11:29:27;;;;;;;2.58;0.98;;;;;;;;;;5060037;28;20044;-74
2021/06/05 11:31:55;;;;;;;3.85;1.10;;;;;;;;;;5063551;28;20161;-73
2021/06/05 11:34:29;;;;;;;2.17;1.20;;;;;;;;;;5066326;28;20450;-74
2021/06/05 11:36:59;;;;;;;2.13;1.35;;;;;;;;;;5049024;28;20104;-74
2021/06/05 11:39:24;;;;;;;;;;;;;;;;;;5049054;28;20127;-73
2021/06/05 11:41:50;;;;;;;3.17;1.13;;;;;;;;;;5048850;28;20028;-74
2021/06/05 11:44:37;;;;;;;1.67;0.80;;;;;;;;;;5050800;28;20048;-74
2021/06/05 11:47:22;;;;;;;5.45;0.80;;;;;;;;;;5056795;28;20476;-74
2021/06/05 11:49:52;;;;;;;2.00;1.10;;;;;;;;;;5054904;28;20025;-74
2021/06/05 11:52:30;;;;;;;3.20;0.98;;;;;;;;;;5052617;28;20763;-74
2021/06/05 11:54:56;;;;;;;2.05;1.17;;;;;;;;;;5058244;28;20440;-74
2021/06/05 11:57:27;;;;;;;1.50;0.93;;;;;;;;;;5063723;28;20032;-73
2021/06/05 11:59:57;;;;;;;2.17;0.90;;;;;;;;;;5052347;28;20014;-73
2021/06/05 12:02:24;;;;;;;2.55;0.82;;;;;;;;;;5052055;28;20064;-74
2021/06/05 12:04:51;;;;;;;2.08;0.70;;;;;;;;;;5052398;28;20032;-73
2021/06/05 12:07:19;;;;;;;2.10;0.65;;;;;;;;;;5052518;28;20040;-74
2021/06/05 12:09:44;;;;;;;1.70;0.93;;;;;;;;;;5033498;28;20043;-74
2021/06/05 12:12:10;;;;;;;2.33;0.70;;;;;;;;;;5053508;28;20465;-73
2021/06/05 12:17:29;;;;;;;1.30;0.60;;;;;;;;;;5051725;28;20029;-71
2021/06/05 12:20:14;;;;;;;2.40;0.85;;;;;;;;;;5062374;28;20039;-72
2021/06/05 12:22:40;;;;;;;4.82;0.90;;;;;;;;;;5045209;28;20029;-73
2021/06/05 12:25:07;;;;;;;1.17;0.80;;;;;;;;;;5051793;28;20055;-73
2021/06/05 12:27:38;;;;;;;2.15;0.65;;;;;;;;;;5070827;28;20024;-74
2021/06/05 12:30:08;;;;;;;1.20;0.80;;;;;;;;;;5071373;28;20019;-74
2021/06/05 12:32:33;;;;;;;2.22;0.80;;;;;;;;;;5045107;28;20036;-73
2021/06/05 12:34:59;;;;;;;4.20;1.02;;;;;;;;;;5045428;28;20584;-73
2021/06/05 12:37:30;;;;;;;4.10;0.80;;;;;;;;;;5051772;28;20056;-74
2021/06/05 12:39:57;;;;;;;1.70;0.70;;;;;;;;;;5071215;28;20769;-74
2021/06/05 12:42:26;;;;;;;2.05;0.73;;;;;;;;;;5057815;28;20143;-74
2021/06/05 12:44:54;;;;;;;2.05;0.80;;;;;;;;;;5051513;28;20013;-74
2021/06/05 12:47:22;;;;;;;1.48;0.88;;;;;;;;;;5070054;28;20027;-73
2021/06/05 12:49:47;;;;;;;2.35;0.70;;;;;;;;;;5070471;28;20110;-73
2021/06/05 12:52:15;;;;;;;1.08;0.70;;;;;;;;;;5071103;28;20066;-74
2021/06/05 12:54:42;;;;;;;2.53;1.20;;;;;;;;;;5063991;28;20116;-73
2021/06/05 12:57:27;;;;;;;1.40;0.73;;;;;;;;;;5051313;28;20025;-74
2021/06/05 12:59:52;;;;;;;1.60;0.85;;;;;;;;;;5051429;28;20365;-76
2021/06/05 13:02:20;;;;;;;1.98;0.98;;;;;;;;;;5063238;28;20043;-74
2021/06/05 13:04:46;;;;;;;2.58;1.00;;;;;;;;;;5070642;28;20017;-73
2021/06/05 13:07:11;;;;;;;4.07;0.95;;;;;;;;;;5069864;28;20035;-74
2021/06/05 13:09:41;;;;;;;1.70;0.80;;;;;;;;;;5050863;28;20122;-73
2021/06/05 13:12:18;;;;;;;1.58;0.90;;;;;;;;;;5051547;28;20376;-74
2021/06/05 13:14:43;;;;;;;9.07;1.20;;;;;;;;;;5070493;28;20039;-74
2021/06/05 13:17:11;;;;;;;1.40;0.93;;;;;;;;;;5062586;28;20321;-74
2021/06/05 13:19:37;;;;;;;1.52;0.80;;;;;;;;;;5050460;28;20024;-73
2021/06/05 13:22:08;;;;;;;2.50;1.00;;;;;;;;;;5064458;28;20356;-74
2021/06/05 13:24:34;;;;;;;2.60;1.00;;;;;;;;;;5058592;28;20116;-74
2021/06/05 13:27:19;;;;;;;2.47;0.80;;;;;;;;;;5063267;28;20222;-74
2021/06/05 13:29:47;;;;;;;2.03;0.95;;;;;;;;;;5066901;28;20029;-72
2021/06/05 13:32:24;;;;;;;6.18;1.00;;;;;;;;;;5053544;28;20046;-74
2021/06/05 13:34:50;;;;;;;2.85;1.33;;;;;;;;;;5052007;28;20136;-74
2021/06/05 13:37:15;;;;;;;1.08;0.90;;;;;;;;;;5049925;28;20111;-74
2021/06/05 13:39:40;;;;;;;1.93;1.20;;;;;;;;;;5054143;28;20037;-75
2021/06/05 13:42:06;;;;;;;1.90;1.10;;;;;;;;;;5069343;28;20594;-74
2021/06/05 13:44:31;;;;;;;1.90;0.95;;;;;;;;;;5069419;28;20074;-74
2021/06/05 13:46:56;;;;;;;2.38;0.85;;;;;;;;;;5069269;28;20029;-74
2021/06/05 13:49:21;;;;;;;1.00;0.93;;;;;;;;;;5060907;28;20066;-74
2021/06/05 13:51:46;;;;;;;2.60;1.10;;;;;;;;;;5051715;28;20118;-71
2021/06/05 13:54:12;;;;;;;1.52;0.98;;;;;;;;;;5067862;28;20618;-70
2021/06/05 13:56:37;;;;;;;4.15;1.10;;;;;;;;;;5068703;28;20391;-71
2021/06/05 13:59:03;;;;;;;1.52;0.90;;;;;;;;;;5055160;28;20020;-70
2021/06/05 14:01:32;;;;;;;2.45;1.10;;;;;;;;;;5049391;28;20040;-71
2021/06/05 14:03:58;;;;;;;7.35;1.83;;;;;;;;;;5049915;28;20122;-74
2021/06/05 14:06:23;;;;;;;3.63;1.10;;;;;;;;;;5050035;28;20048;-73
2021/06/05 14:08:48;;;;;;;6.30;1.45;;;;;;;;;;5055855;28;20024;-73
2021/06/05 14:11:17;;;;;;;2.40;0.80;;;;;;;;;;5063297;28;20112;-75
2021/06/05 14:13:43;;;;;;;1.30;0.90;;;;;;;;;;5068417;28;20261;-73
2021/06/05 14:16:09;;;;;;;2.40;0.82;;;;;;;;;;5056544;28;20025;-73
2021/06/05 14:18:34;;;;;;;4.60;0.80;;;;;;;;;;5068063;28;20021;-74
2021/06/05 14:21:00;;;;;;;1.30;0.63;;;;;;;;;;5057730;28;20437;-74
2021/06/05 14:23:26;;;;;;;1.05;0.60;;;;;;;;;;5064004;28;20340;-75
2021/06/05 14:25:52;;;;;;;2.22;0.80;;;;;;;;;;5067254;28;20020;-74
2021/06/05 14:28:18;;;;;;;3.88;1.00;;;;;;;;;;5057793;28;20025;-74
2021/06/05 14:30:44;;;;;;;1.83;0.80;;;;;;;;;;5062145;28;20119;-75
2021/06/05 14:33:11;;;;;;;1.95;1.10;;;;;;;;;;5053348;28;20080;-73
2021/06/05 14:35:36;;;;;;;3.78;1.10;;;;;;;;;;5068237;28;20058;-74
2021/06/05 14:38:05;;;;;;;3.10;0.70;;;;;;;;;;5068613;28;20020;-74
2021/06/05 14:40:30;;;;;;;1.67;0.90;;;;;;;;;;5041239;28;20113;-74
2021/06/05 14:42:55;;;;;;;1.45;0.90;;;;;;;;;;5055734;28;20094;-73